Time;durP1;ratioP1;P1;durP2;ratioP2;P2;SDS_P1;SDS_P2;PMS_P1;PMS_P2;Temp;Humidity;BMP_temperature;BMP_pressure;BME280_temperature;BME280_humidity;BME280_pressure;Samples;Min_cycle;Max_cycle;Signal;HPM_P1;HPM_P2
2022/03/30 00:00:57;;;;;;;24.90;7.90;;;13.00;96.00;;;;;;5058858;28;20396;-85
2022/03/30 00:03:23;;;;;;;25.37;8.40;;;12.90;96.90;;;;;;5058312;28;20382;-85
2022/03/30 00:05:51;;;;;;;26.77;7.93;;;13.60;96.30;;;;;;5058856;28;20405;-85
2022/03/30 00:08:17;;;;;;;32.13;8.20;;;12.90;96.50;;;;;;5059061;28;20369;-85
2022/03/30 00:10:43;;;;;;;30.45;8.68;;;12.70;96.50;;;;;;5061535;28;20389;-85
2022/03/30 00:13:09;;;;;;;29.65;7.93;;;12.20;97.00;;;;;;5048459;28;20397;-85
2022/03/30 00:15:34;;;;;;;26.83;7.50;;;12.40;97.30;;;;;;5048533;28;20389;-83
2022/03/30 00:18:00;;;;;;;28.30;8.00;;;12.50;97.20;;;;;;5061709;28;20389;-85
2022/03/30 00:20:26;;;;;;;24.45;7.90;;;12.60;96.90;;;;;;5061044;28;20401;-85
2022/03/30 00:22:52;;;;;;;28.30;8.80;;;12.70;96.80;;;;;;5062206;28;20393;-85
2022/03/30 00:25:17;;;;;;;25.02;7.53;;;12.70;96.40;;;;;;5044169;28;20884;-86
2022/03/30 00:27:46;;;;;;;26.67;7.63;;;12.70;97.20;;;;;;5062410;28;20464;-87
2022/03/30 00:30:14;;;;;;;26.85;7.47;;;12.70;97.40;;;;;;5056330;28;20408;-85
2022/03/30 00:32:40;;;;;;;27.90;7.78;;;12.10;98.60;;;;;;5042552;28;20480;-85
2022/03/30 00:35:07;;;;;;;25.83;6.97;;;12.50;97.60;;;;;;5061397;28;20476;-85
2022/03/30 00:37:34;;;;;;;29.42;8.15;;;12.70;97.60;;;;;;5052328;28;20389;-84
2022/03/30 00:40:00;;;;;;;28.23;7.85;;;12.70;97.50;;;;;;5061307;28;20803;-85
2022/03/30 00:42:26;;;;;;;25.23;7.65;;;12.90;96.90;;;;;;5060960;28;20430;-85
2022/03/30 00:44:53;;;;;;;28.00;7.63;;;13.00;96.80;;;;;;5060514;28;20944;-85
2022/03/30 00:47:26;;;;;;;27.75;8.05;;;13.00;96.40;;;;;;5061796;28;20385;-85
2022/03/30 00:49:53;;;;;;;21.70;7.65;;;12.70;96.90;;;;;;5060672;28;20725;-85
2022/03/30 00:52:20;;;;;;;23.25;7.35;;;12.60;97.40;;;;;;5060511;28;20393;-84
2022/03/30 00:54:51;;;;;;;27.05;7.53;;;12.80;96.80;;;;;;5063834;28;20397;-85
2022/03/30 00:57:21;;;;;;;27.48;7.68;;;12.80;97.40;;;;;;5068445;28;20393;-87
2022/03/30 00:59:47;;;;;;;29.37;8.10;;;12.60;97.40;;;;;;5073932;28;20409;-84
2022/03/30 01:02:13;;;;;;;25.95;8.35;;;12.00;98.90;;;;;;5059203;28;20744;-85
2022/03/30 01:04:39;;;;;;;24.88;7.55;;;12.10;98.10;;;;;;5058853;28;20393;-85
2022/03/30 01:07:05;;;;;;;35.67;8.40;;;12.40;98.20;;;;;;5061571;28;20377;-84
2022/03/30 01:09:31;;;;;;;30.13;7.80;;;12.50;99.00;;;;;;5060112;28;20794;-83
2022/03/30 01:11:57;;;;;;;37.38;8.88;;;12.40;98.60;;;;;;5060815;28;20428;-85
2022/03/30 01:14:23;;;;;;;36.25;8.55;;;12.40;98.20;;;;;;5061316;28;20393;-85
2022/03/30 01:16:49;;;;;;;24.25;8.18;;;12.20;98.50;;;;;;5059310;28;20381;-85
2022/03/30 01:19:15;;;;;;;24.85;8.20;;;12.20;98.50;;;;;;5059546;28;20492;-85
2022/03/30 01:21:42;;;;;;;30.83;8.50;;;12.30;98.50;;;;;;5060187;28;20413;-85
2022/03/30 01:24:09;;;;;;;21.55;7.53;;;12.10;98.40;;;;;;5056683;28;20399;-85
2022/03/30 01:26:36;;;;;;;26.88;7.53;;;12.40;98.50;;;;;;5036700;28;20481;-84
2022/03/30 01:32:25;;;;;;;25.73;7.57;;;12.60;98.30;;;;;;5058223;28;20484;-84
2022/03/30 01:34:40;;;;;;;23.92;7.68;;;12.50;98.10;;;;;;5057428;28;20443;-85
2022/03/30 01:37:07;;;;;;;27.02;8.00;;;12.40;98.50;;;;;;5049807;28;20385;-85
2022/03/30 01:39:33;;;;;;;27.20;7.50;;;12.80;98.40;;;;;;5054212;28;20411;-85
2022/03/30 01:41:59;;;;;;;26.45;7.78;;;12.50;98.80;;;;;;5056333;28;20744;-87
2022/03/30 01:44:24;;;;;;;25.98;7.57;;;12.50;98.90;;;;;;5055500;28;20385;-85
2022/03/30 01:46:53;;;;;;;28.13;7.50;;;12.50;99.00;;;;;;5056385;28;20413;-85
2022/03/30 01:49:22;;;;;;;30.05;7.95;;;12.40;99.20;;;;;;5057927;28;20460;-84
2022/03/30 01:51:49;;;;;;;29.53;8.53;;;12.50;98.20;;;;;;5059599;28;20759;-84
2022/03/30 01:54:20;;;;;;;26.10;8.30;;;12.30;98.80;;;;;;5061237;28;20428;-84
2022/03/30 01:56:49;;;;;;;29.88;10.10;;;12.30;99.20;;;;;;5059152;28;20417;-84
2022/03/30 01:59:15;;;;;;;34.07;9.40;;;12.10;97.40;;;;;;5061814;28;20497;-84
2022/03/30 02:01:42;;;;;;;36.10;8.75;;;12.10;97.10;;;;;;5059456;28;20377;-84
2022/03/30 02:04:08;;;;;;;35.28;8.18;;;11.80;96.80;;;;;;5064167;28;20396;-84
2022/03/30 02:06:38;;;;;;;34.78;8.23;;;11.60;97.30;;;;;;5056100;28;20409;-86
2022/03/30 02:09:05;;;;;;;28.38;7.97;;;11.60;97.10;;;;;;5042438;28;20397;-84
2022/03/30 02:11:31;;;;;;;39.38;8.65;;;11.60;97.20;;;;;;5041729;28;20503;-84
2022/03/30 02:13:57;;;;;;;32.08;8.35;;;11.60;97.40;;;;;;5052796;28;20413;-84
2022/03/30 02:16:24;;;;;;;34.50;7.90;;;11.70;97.80;;;;;;5036840;28;20725;-84
2022/03/30 02:18:50;;;;;;;33.88;7.40;;;11.70;98.50;;;;;;5043469;28;20467;-84
2022/03/30 02:21:16;;;;;;;34.38;8.40;;;11.80;98.40;;;;;;5055858;28;20385;-86
2022/03/30 02:23:42;;;;;;;34.70;7.50;;;11.80;99.10;;;;;;5055769;28;20422;-85
2022/03/30 02:26:08;;;;;;;28.65;8.35;;;12.00;99.10;;;;;;5056640;28;20381;-84
2022/03/30 02:28:34;;;;;;;34.08;8.25;;;11.90;99.20;;;;;;5056521;28;20745;-84
2022/03/30 02:31:00;;;;;;;31.77;8.15;;;12.00;99.00;;;;;;5056163;28;20400;-86
2022/03/30 02:33:26;;;;;;;30.77;7.78;;;12.00;98.90;;;;;;5060800;28;20391;-84
2022/03/30 02:35:52;;;;;;;36.90;8.43;;;12.10;98.70;;;;;;5067769;28;20377;-84
2022/03/30 02:38:18;;;;;;;36.92;8.35;;;12.10;98.70;;;;;;5052422;28;20752;-84
2022/03/30 02:40:45;;;;;;;29.65;7.90;;;12.10;98.80;;;;;;5059668;28;20486;-85
2022/03/30 02:43:11;;;;;;;34.28;8.35;;;12.10;98.80;;;;;;5059139;28;20381;-85
2022/03/30 02:45:38;;;;;;;33.67;8.18;;;12.10;98.90;;;;;;5059205;28;20454;-84
2022/03/30 02:48:19;;;;;;;34.45;8.20;;;12.00;98.60;;;;;;5060529;28;20381;-85
2022/03/30 02:50:47;;;;;;;30.27;8.10;;;12.10;98.60;;;;;;5060385;28;20386;-85
2022/03/30 02:53:14;;;;;;;31.75;8.25;;;12.10;98.60;;;;;;5060380;28;20756;-85
2022/03/30 02:55:39;;;;;;;29.98;8.10;;;12.20;99.10;;;;;;5060274;28;20392;-85
2022/03/30 02:58:06;;;;;;;34.63;8.43;;;12.20;99.10;;;;;;5060434;28;20381;-85
2022/03/30 03:00:32;;;;;;;34.65;8.18;;;12.20;99.10;;;;;;5060256;28;20407;-85
2022/03/30 03:03:00;;;;;;;35.72;8.40;;;12.30;99.10;;;;;;5060280;28;20385;-85
2022/03/30 03:05:31;;;;;;;30.98;8.23;;;12.10;99.00;;;;;;5060734;28;20388;-85
2022/03/30 03:07:58;;;;;;;31.10;9.10;;;12.10;99.20;;;;;;5042370;28;20477;-85
2022/03/30 03:10:24;;;;;;;29.42;7.97;;;12.00;99.20;;;;;;5060253;28;20396;-85
2022/03/30 03:12:49;;;;;;;31.63;8.90;;;12.00;99.10;;;;;;5060236;28;20381;-85
2022/03/30 03:15:15;;;;;;;33.27;8.43;;;12.10;99.20;;;;;;5060161;28;20393;-85
2022/03/30 03:17:41;;;;;;;27.13;7.75;;;12.30;99.10;;;;;;5060033;28;20439;-85
2022/03/30 03:20:07;;;;;;;31.92;7.43;;;12.30;99.10;;;;;;5058676;28;20436;-85
2022/03/30 03:22:32;;;;;;;27.33;7.20;;;12.40;98.90;;;;;;5057204;28;20446;-84
2022/03/30 03:24:58;;;;;;;24.20;7.35;;;12.50;98.90;;;;;;5042350;28;20417;-85
2022/03/30 03:27:23;;;;;;;25.17;7.55;;;12.70;98.70;;;;;;5060249;28;20382;-85
2022/03/30 03:29:49;;;;;;;29.92;7.85;;;12.70;98.60;;;;;;5059061;28;20420;-84
2022/03/30 03:32:15;;;;;;;26.70;7.90;;;12.80;99.00;;;;;;5041227;28;20401;-85
2022/03/30 03:34:40;;;;;;;27.23;7.87;;;12.80;99.00;;;;;;5041093;28;20396;-85
2022/03/30 03:37:06;;;;;;;39.90;8.67;;;12.70;99.10;;;;;;5048495;28;20411;-84
2022/03/30 03:39:32;;;;;;;30.77;8.43;;;12.70;98.50;;;;;;5058066;28;20446;-84
2022/03/30 03:41:58;;;;;;;32.60;9.00;;;12.40;98.70;;;;;;5059431;28;20397;-85
2022/03/30 03:44:23;;;;;;;35.42;8.52;;;12.20;99.20;;;;;;5060961;28;20385;-85
2022/03/30 03:46:49;;;;;;;29.97;8.67;;;12.00;99.40;;;;;;5058753;28;20381;-85
2022/03/30 03:49:15;;;;;;;34.83;9.27;;;11.90;99.60;;;;;;5062880;28;20533;-87
2022/03/30 03:51:40;;;;;;;31.50;8.17;;;12.00;99.70;;;;;;5064801;28;20466;-87
2022/03/30 03:54:06;;;;;;;29.02;7.75;;;12.00;99.90;;;;;;5065636;28;20381;-87
2022/03/30 03:56:32;;;;;;;30.75;8.68;;;12.20;99.90;;;;;;5062917;28;20472;-86
2022/03/30 03:58:57;;;;;;;35.30;8.18;;;12.00;99.90;;;;;;5061036;28;20401;-86
2022/03/30 04:01:23;;;;;;;29.83;7.68;;;12.10;99.90;;;;;;5065728;28;20489;-87
2022/03/30 04:03:49;;;;;;;28.75;7.90;;;12.20;99.90;;;;;;5058464;28;20389;-87
2022/03/30 04:06:14;;;;;;;39.07;8.73;;;12.10;99.90;;;;;;5054400;28;20411;-87
2022/03/30 04:08:40;;;;;;;34.00;8.27;;;12.20;99.90;;;;;;5041997;28;20393;-86
2022/03/30 04:11:05;;;;;;;32.87;8.03;;;12.10;99.90;;;;;;5059607;28;20396;-86
2022/03/30 04:13:32;;;;;;;26.77;7.30;;;11.90;99.90;;;;;;5043020;28;20385;-87
2022/03/30 04:15:57;;;;;;;27.75;8.02;;;11.80;99.90;;;;;;5059696;28;20789;-87
2022/03/30 04:18:23;;;;;;;26.80;7.27;;;11.80;99.90;;;;;;5058047;28;20389;-87
2022/03/30 04:20:49;;;;;;;28.77;7.82;;;11.80;99.90;;;;;;5061155;28;20442;-86
2022/03/30 04:23:14;;;;;;;30.70;8.32;;;11.80;99.90;;;;;;5061651;28;20430;-87
2022/03/30 04:25:40;;;;;;;26.50;8.00;;;11.90;99.90;;;;;;5061248;28;20381;-87
2022/03/30 04:28:06;;;;;;;26.13;8.10;;;12.20;99.90;;;;;;5060881;28;20382;-87
2022/03/30 04:30:32;;;;;;;29.20;8.30;;;12.30;99.90;;;;;;5060505;28;20456;-86
2022/03/30 04:32:58;;;;;;;30.63;8.30;;;12.40;99.90;;;;;;5060529;28;20738;-87
2022/03/30 04:35:26;;;;;;;30.65;7.60;;;12.30;99.90;;;;;;5042671;28;20416;-87
2022/03/30 04:37:53;;;;;;;25.35;8.27;;;12.40;99.90;;;;;;5034183;28;20450;-86
2022/03/30 04:40:19;;;;;;;32.05;8.80;;;12.30;99.90;;;;;;5061270;28;20406;-86
2022/03/30 04:42:45;;;;;;;29.67;9.05;;;12.00;99.90;;;;;;5063484;28;20380;-86
2022/03/30 04:45:11;;;;;;;34.30;8.20;;;11.80;99.90;;;;;;5074475;28;20444;-86
2022/03/30 04:47:36;;;;;;;31.30;8.50;;;11.70;99.90;;;;;;5067926;28;20382;-86
2022/03/30 04:50:03;;;;;;;26.05;8.73;;;11.50;99.90;;;;;;5058844;28;20393;-86
2022/03/30 04:52:29;;;;;;;34.28;8.55;;;11.80;99.90;;;;;;5061138;28;20752;-86
2022/03/30 04:54:54;;;;;;;33.08;9.27;;;11.90;99.90;;;;;;5043888;28;20381;-86
2022/03/30 04:57:20;;;;;;;36.22;9.02;;;11.80;99.90;;;;;;5060552;28;20386;-86
2022/03/30 04:59:46;;;;;;;29.45;8.52;;;11.70;99.90;;;;;;5059666;28;20416;-85
2022/03/30 05:02:12;;;;;;;32.70;8.67;;;12.10;99.90;;;;;;5043022;28;20439;-86
2022/03/30 05:04:38;;;;;;;22.63;8.07;;;11.50;99.90;;;;;;5060288;28;20401;-85
2022/03/30 05:07:04;;;;;;;28.60;8.85;;;11.40;99.90;;;;;;5058463;28;20736;-84
2022/03/30 05:09:29;;;;;;;33.05;8.38;;;11.30;99.90;;;;;;5058714;28;20381;-86
2022/03/30 05:11:55;;;;;;;33.78;9.18;;;11.00;99.90;;;;;;5056768;28;20923;-85
2022/03/30 05:14:21;;;;;;;24.30;8.02;;;11.00;99.90;;;;;;5058401;28;20381;-84
2022/03/30 05:16:47;;;;;;;29.30;8.98;;;10.90;99.90;;;;;;5040585;28;20389;-84
2022/03/30 05:19:13;;;;;;;25.98;8.20;;;11.00;99.90;;;;;;5057911;28;20451;-86
2022/03/30 05:21:38;;;;;;;31.08;8.60;;;10.90;99.90;;;;;;5059392;28;20396;-85
2022/03/30 05:24:04;;;;;;;32.25;9.02;;;11.00;99.90;;;;;;5052153;28;20794;-85
2022/03/30 05:26:30;;;;;;;28.67;10.02;;;11.00;99.90;;;;;;5035913;28;20385;-86
2022/03/30 05:28:56;;;;;;;24.30;8.30;;;10.90;99.90;;;;;;5058933;28;20389;-86
2022/03/30 05:31:21;;;;;;;33.10;9.20;;;10.70;99.90;;;;;;5040283;28;20393;-86
2022/03/30 05:33:47;;;;;;;29.08;8.75;;;10.70;99.90;;;;;;5035400;28;20390;-85
2022/03/30 05:36:12;;;;;;;31.55;9.35;;;10.50;99.90;;;;;;5064980;28;20383;-86
2022/03/30 05:38:38;;;;;;;23.90;8.70;;;10.60;99.90;;;;;;5039391;28;20994;-85
2022/03/30 05:41:04;;;;;;;33.65;9.80;;;10.60;99.90;;;;;;5059754;28;20798;-85
2022/03/30 05:43:31;;;;;;;26.85;8.93;;;10.40;99.90;;;;;;5059077;28;20389;-86
2022/03/30 05:45:57;;;;;;;28.17;9.43;;;10.30;99.90;;;;;;5060253;28;20779;-85
2022/03/30 05:48:23;;;;;;;27.93;9.10;;;10.10;99.90;;;;;;5040811;28;20460;-85
2022/03/30 05:50:51;;;;;;;27.20;9.03;;;10.20;99.90;;;;;;5043931;28;20460;-86
2022/03/30 05:53:17;;;;;;;25.47;8.93;;;10.40;99.90;;;;;;5028108;28;20424;-86
2022/03/30 05:55:44;;;;;;;24.65;8.77;;;10.70;99.90;;;;;;5048438;28;20424;-85
2022/03/30 05:58:11;;;;;;;29.58;9.00;;;10.80;99.90;;;;;;5040562;28;20723;-86
2022/03/30 06:00:38;;;;;;;28.17;9.43;;;10.50;99.90;;;;;;5031031;28;20405;-86
2022/03/30 06:03:03;;;;;;;26.42;9.63;;;10.50;99.90;;;;;;5052280;28;20385;-84
2022/03/30 06:05:29;;;;;;;26.93;9.30;;;10.50;99.90;;;;;;5056108;28;20385;-86
2022/03/30 06:07:59;;;;;;;21.20;9.03;;;10.50;99.90;;;;;;5045404;28;20490;-86
2022/03/30 06:10:28;;;;;;;32.65;10.40;;;10.70;99.90;;;;;;5043676;28;20417;-86
2022/03/30 06:12:55;;;;;;;29.33;10.75;;;10.80;99.90;;;;;;5042494;28;20428;-86
2022/03/30 06:15:22;;;;;;;23.67;10.63;;;11.00;99.90;;;;;;5058126;28;20718;-86
2022/03/30 06:17:48;;;;;;;21.75;9.55;;;10.90;99.90;;;;;;5045611;28;20384;-85
2022/03/30 06:20:15;;;;;;;25.08;9.57;;;11.20;99.90;;;;;;5056978;28;20405;-86
2022/03/30 06:22:44;;;;;;;21.42;9.30;;;11.30;99.90;;;;;;5055230;28;20388;-86
2022/03/30 06:25:10;;;;;;;26.27;9.45;;;11.40;99.90;;;;;;5037578;28;20382;-86
2022/03/30 06:27:40;;;;;;;21.40;9.15;;;11.50;99.90;;;;;;5040162;28;20419;-86
2022/03/30 06:30:08;;;;;;;24.70;10.10;;;11.50;99.90;;;;;;5057180;28;20903;-86
2022/03/30 06:32:35;;;;;;;23.83;8.82;;;11.50;99.90;;;;;;5057168;28;20745;-86
2022/03/30 06:35:03;;;;;;;28.02;9.48;;;11.30;99.90;;;;;;5039494;28;20381;-86
2022/03/30 06:37:29;;;;;;;25.23;9.02;;;11.10;99.90;;;;;;5034098;28;20425;-86
2022/03/30 06:39:55;;;;;;;19.23;8.98;;;11.00;99.90;;;;;;5059051;28;20413;-86
2022/03/30 06:42:21;;;;;;;22.80;9.10;;;11.10;99.90;;;;;;5057427;28;20378;-87
2022/03/30 06:44:46;;;;;;;21.80;8.82;;;11.10;99.90;;;;;;5030177;28;20411;-85
2022/03/30 06:47:12;;;;;;;25.80;9.13;;;11.10;99.90;;;;;;5059803;28;20834;-85
2022/03/30 06:49:38;;;;;;;23.67;8.82;;;11.40;99.90;;;;;;5061584;28;20476;-86
2022/03/30 06:52:08;;;;;;;26.00;9.52;;;11.10;99.90;;;;;;5051388;28;20414;-86
2022/03/30 06:54:35;;;;;;;22.17;9.15;;;11.00;99.90;;;;;;5030595;28;20396;-86
2022/03/30 06:57:02;;;;;;;26.42;9.40;;;11.10;99.90;;;;;;5041643;28;20396;-86
2022/03/30 06:59:28;;;;;;;23.58;9.68;;;10.70;99.90;;;;;;5045255;28;20422;-85
2022/03/30 07:01:58;;;;;;;25.25;9.77;;;10.70;99.90;;;;;;5047228;28;20471;-86
2022/03/30 07:04:24;;;;;;;24.60;9.73;;;10.60;99.90;;;;;;5041454;28;20445;-87
2022/03/30 07:12:19;;;;;;;27.23;9.88;;;10.40;99.90;;;;;;5065564;28;20385;-86
2022/03/30 07:14:58;;;;;;;32.83;10.23;;;10.20;99.90;;;;;;5065861;28;20779;-85
2022/03/30 07:17:23;;;;;;;28.23;10.60;;;10.30;99.90;;;;;;5040318;28;20402;-86
2022/03/30 07:19:49;;;;;;;31.92;11.38;;;10.10;99.90;;;;;;5044838;28;20936;-84
2022/03/30 07:22:15;;;;;;;23.40;9.38;;;10.00;99.90;;;;;;5063215;28;20378;-86
2022/03/30 07:24:41;;;;;;;22.52;9.98;;;10.10;99.90;;;;;;5037834;28;20395;-86
2022/03/30 07:27:07;;;;;;;28.65;10.70;;;10.10;99.90;;;;;;5034158;28;20388;-86
2022/03/30 07:29:33;;;;;;;32.35;10.73;;;10.10;99.90;;;;;;5060094;28;20389;-86
2022/03/30 07:31:58;;;;;;;33.95;10.45;;;10.00;99.90;;;;;;5064218;28;20451;-86
2022/03/30 07:34:24;;;;;;;29.63;11.10;;;9.80;99.90;;;;;;5062485;28;20389;-86
2022/03/30 07:36:50;;;;;;;31.30;10.48;;;9.80;99.90;;;;;;5034004;28;20427;-86
2022/03/30 07:39:16;;;;;;;28.73;10.70;;;9.80;99.90;;;;;;5061056;28;20405;-86
2022/03/30 07:41:44;;;;;;;34.05;11.48;;;9.80;99.90;;;;;;5060080;28;20388;-86
2022/03/30 07:44:10;;;;;;;26.35;11.38;;;9.70;99.90;;;;;;5058150;28;20380;-87
2022/03/30 07:46:36;;;;;;;34.15;11.40;;;9.90;99.90;;;;;;5056373;28;20378;-87
2022/03/30 07:49:01;;;;;;;22.60;10.90;;;10.10;99.90;;;;;;5058017;28;20382;-87
2022/03/30 07:51:27;;;;;;;32.97;11.60;;;9.80;99.90;;;;;;5059642;28;20378;-87
2022/03/30 07:53:52;;;;;;;30.25;11.55;;;9.80;99.90;;;;;;5042720;28;20381;-87
2022/03/30 07:56:20;;;;;;;31.58;10.98;;;9.70;99.90;;;;;;5058225;28;20381;-86
2022/03/30 07:58:48;;;;;;;30.35;11.30;;;9.80;99.90;;;;;;5064134;28;20385;-86
2022/03/30 08:01:14;;;;;;;30.75;11.88;;;9.80;99.90;;;;;;5065757;28;20377;-86
2022/03/30 08:03:40;;;;;;;29.67;11.57;;;10.20;99.90;;;;;;5063993;28;20792;-87
2022/03/30 08:06:06;;;;;;;29.42;11.65;;;9.70;99.90;;;;;;5047317;28;20536;-87
2022/03/30 08:08:32;;;;;;;27.47;11.40;;;10.10;99.90;;;;;;5031188;28;20399;-86
2022/03/30 08:10:57;;;;;;;31.33;11.93;;;9.80;99.90;;;;;;5036129;28;20843;-86
2022/03/30 08:13:23;;;;;;;30.17;12.13;;;9.70;99.90;;;;;;5060073;28;20432;-87
2022/03/30 08:15:49;;;;;;;30.45;11.95;;;10.00;99.90;;;;;;5060190;28;20393;-84
2022/03/30 08:18:17;;;;;;;35.35;12.23;;;9.70;99.90;;;;;;5061594;28;20452;-86
2022/03/30 08:23:27;;;;;;;30.70;12.00;;;9.90;99.90;;;;;;5061146;28;20389;-85
2022/03/30 08:25:53;;;;;;;28.37;11.80;;;9.80;99.90;;;;;;5056558;28;20377;-85
2022/03/30 08:28:19;;;;;;;27.47;12.40;;;9.80;99.90;;;;;;5026735;28;20383;-85
2022/03/30 08:30:44;;;;;;;34.15;12.20;;;9.80;99.90;;;;;;5040347;28;20402;-85
2022/03/30 08:33:10;;;;;;;31.45;12.27;;;9.80;99.90;;;;;;5051300;28;20403;-85
2022/03/30 08:35:36;;;;;;;27.42;11.70;;;9.80;99.90;;;;;;5046411;28;20391;-86
2022/03/30 08:38:03;;;;;;;31.23;12.10;;;9.80;99.90;;;;;;5030795;28;20421;-85
2022/03/30 08:40:29;;;;;;;32.65;12.30;;;9.80;99.90;;;;;;5057589;28;20440;-85
2022/03/30 08:42:55;;;;;;;31.02;11.85;;;10.50;99.90;;;;;;5054036;28;20389;-85
2022/03/30 08:45:21;;;;;;;29.05;13.20;;;9.80;99.90;;;;;;5043298;28;20785;-85
2022/03/30 08:47:47;;;;;;;30.52;12.48;;;9.80;99.90;;;;;;5044639;28;20400;-86
2022/03/30 08:50:12;;;;;;;24.90;12.25;;;10.20;99.90;;;;;;5053453;28;20392;-85
2022/03/30 08:52:38;;;;;;;25.57;12.30;;;10.00;99.90;;;;;;5045278;28;20383;-87
2022/03/30 08:55:05;;;;;;;30.27;11.40;;;10.10;99.90;;;;;;5050406;28;20481;-86
2022/03/30 08:57:31;;;;;;;24.45;11.18;;;10.30;99.90;;;;;;5046856;28;20389;-86
2022/03/30 09:00:02;;;;;;;28.03;11.37;;;10.40;99.90;;;;;;5046902;28;21033;-86
2022/03/30 09:02:40;;;;;;;22.33;10.50;;;10.80;99.90;;;;;;5043454;28;20390;-86
2022/03/30 09:05:14;;;;;;;28.20;11.85;;;10.50;99.90;;;;;;5048480;28;20376;-85
2022/03/30 09:07:41;;;;;;;25.05;11.40;;;10.60;99.90;;;;;;5045890;28;20409;-86
2022/03/30 09:10:18;;;;;;;29.40;11.15;;;10.70;99.90;;;;;;5051699;28;20387;-86
2022/03/30 09:12:45;;;;;;;25.40;10.80;;;10.80;99.90;;;;;;5047237;28;20389;-85
2022/03/30 09:15:12;;;;;;;24.88;10.40;;;11.00;99.90;;;;;;5048130;28;20394;-87
2022/03/30 09:18:22;;;;;;;20.85;10.75;;;11.10;99.90;;;;;;5050514;28;20395;-86
2022/03/30 09:20:52;;;;;;;22.83;11.38;;;11.20;99.90;;;;;;5029319;28;20427;-86
2022/03/30 09:23:18;;;;;;;28.25;11.63;;;11.20;99.90;;;;;;5044212;28;20398;-85
2022/03/30 09:25:48;;;;;;;26.13;12.15;;;11.20;99.90;;;;;;5048117;28;20394;-86
2022/03/30 09:28:22;;;;;;;26.80;11.18;;;11.10;99.90;;;;;;5048972;28;20391;-86
2022/03/30 09:30:50;;;;;;;26.75;12.07;;;11.10;99.90;;;;;;5055933;28;20473;-86
2022/03/30 09:33:18;;;;;;;24.20;11.68;;;11.10;99.90;;;;;;5041775;28;20396;-86
2022/03/30 09:35:43;;;;;;;27.25;11.30;;;11.60;99.90;;;;;;5057060;28;20381;-86
2022/03/30 09:38:19;;;;;;;22.10;11.23;;;11.00;99.90;;;;;;5028137;28;20395;-86
2022/03/30 09:41:01;;;;;;;19.97;10.87;;;10.70;99.90;;;;;;5044929;28;20409;-86
2022/03/30 09:43:35;;;;;;;24.13;10.98;;;10.80;99.90;;;;;;5058830;28;20388;-86
2022/03/30 09:46:10;;;;;;;24.85;10.70;;;10.80;99.90;;;;;;5041448;28;20389;-86
2022/03/30 09:48:54;;;;;;;27.63;11.55;;;10.50;99.90;;;;;;5073231;28;20409;-86
2022/03/30 09:51:24;;;;;;;28.08;11.95;;;10.50;99.90;;;;;;5062801;28;20388;-87
2022/03/30 09:53:59;;;;;;;22.50;11.45;;;10.40;99.90;;;;;;5052081;28;20478;-86
2022/03/30 09:56:25;;;;;;;25.33;12.38;;;10.40;99.90;;;;;;5065315;28;20379;-86
2022/03/30 09:59:00;;;;;;;22.73;12.57;;;10.30;99.90;;;;;;5049581;28;20447;-85
2022/03/30 10:01:32;;;;;;;21.75;10.90;;;10.30;99.90;;;;;;5056015;28;20383;-85
2022/03/30 10:03:59;;;;;;;18.60;11.25;;;10.20;99.90;;;;;;5076107;28;20396;-86
2022/03/30 10:06:26;;;;;;;20.65;11.27;;;10.50;99.90;;;;;;5059758;28;20388;-86
2022/03/30 10:08:54;;;;;;;20.92;11.52;;;10.50;99.90;;;;;;5067619;28;20375;-86
2022/03/30 10:11:21;;;;;;;22.73;11.88;;;10.40;99.90;;;;;;5056770;28;20391;-86
2022/03/30 10:13:54;;;;;;;24.90;12.88;;;10.40;99.90;;;;;;5050433;28;20388;-86
2022/03/30 10:16:21;;;;;;;23.75;12.82;;;10.40;99.90;;;;;;5083357;28;20390;-86
2022/03/30 10:18:48;;;;;;;29.58;14.20;;;10.60;99.90;;;;;;5064921;28;20390;-87
2022/03/30 10:21:32;;;;;;;22.65;12.63;;;10.00;99.90;;;;;;5048176;28;20419;-86
2022/03/30 10:24:01;;;;;;;21.92;12.23;;;9.90;99.90;;;;;;5073700;28;20427;-87
2022/03/30 10:26:45;;;;;;;20.90;11.70;;;10.00;99.90;;;;;;5055624;28;20389;-85
2022/03/30 10:29:16;;;;;;;25.48;12.98;;;10.10;99.90;;;;;;5072602;28;20365;-85
2022/03/30 10:31:42;;;;;;;22.73;13.77;;;10.10;99.90;;;;;;5072324;28;20401;-85
2022/03/30 10:34:24;;;;;;;21.42;13.48;;;10.60;99.90;;;;;;5072405;28;20389;-85
2022/03/30 10:37:09;;;;;;;24.92;13.13;;;10.10;99.90;;;;;;5073936;28;20404;-85
2022/03/30 10:39:52;;;;;;;20.13;12.00;;;10.10;99.90;;;;;;5069269;28;20882;-84
2022/03/30 10:42:18;;;;;;;21.70;12.05;;;10.10;99.90;;;;;;5068414;28;20378;-85
2022/03/30 10:44:49;;;;;;;20.73;11.93;;;10.00;99.90;;;;;;5067233;28;20385;-85
2022/03/30 10:47:22;;;;;;;20.98;11.50;;;11.00;99.90;;;;;;5067822;28;20458;-85
2022/03/30 10:49:52;;;;;;;18.60;11.10;;;10.00;99.90;;;;;;5050930;28;20451;-85
2022/03/30 10:52:39;;;;;;;17.05;10.73;;;10.00;99.90;;;;;;5088034;28;20384;-85
2022/03/30 10:55:14;;;;;;;20.38;12.10;;;10.00;99.90;;;;;;5060826;28;20400;-85
2022/03/30 10:58:03;;;;;;;22.40;12.43;;;10.10;99.90;;;;;;5054099;28;20389;-85
2022/03/30 11:00:37;;;;;;;24.70;11.77;;;9.90;99.90;;;;;;5054564;28;20401;-86
2022/03/30 11:03:21;;;;;;;18.75;11.40;;;10.40;99.90;;;;;;5072240;28;20411;-86
2022/03/30 11:06:02;;;;;;;22.25;11.90;;;10.10;99.90;;;;;;5071711;28;20405;-86
2022/03/30 11:08:33;;;;;;;23.17;11.95;;;9.90;99.90;;;;;;5070748;28;20382;-86
2022/03/30 11:11:04;;;;;;;17.70;12.15;;;9.90;99.90;;;;;;5070937;28;20879;-86
2022/03/30 11:13:30;;;;;;;24.50;13.52;;;10.00;99.90;;;;;;5071474;28;20384;-86
2022/03/30 11:16:04;;;;;;;20.08;13.40;;;9.90;99.90;;;;;;5071487;28;20406;-85
2022/03/30 11:18:31;;;;;;;18.85;11.45;;;9.90;99.90;;;;;;5070711;28;20377;-86
2022/03/30 11:21:08;;;;;;;19.60;11.57;;;9.80;99.90;;;;;;5070973;28;20413;-85
2022/03/30 11:23:36;;;;;;;20.13;11.13;;;9.80;99.90;;;;;;5070929;28;20400;-86
2022/03/30 11:26:02;;;;;;;17.30;10.48;;;9.80;99.90;;;;;;5067312;28;20372;-86
2022/03/30 11:28:40;;;;;;;17.23;10.60;;;9.80;99.90;;;;;;5086120;28;20424;-86
2022/03/30 11:31:19;;;;;;;18.20;11.10;;;9.80;99.90;;;;;;5071792;28;20416;-85
2022/03/30 11:33:45;;;;;;;18.93;10.70;;;9.80;99.90;;;;;;5051375;28;20388;-85
2022/03/30 11:36:14;;;;;;;17.88;10.82;;;9.80;99.90;;;;;;5066329;28;20379;-86
2022/03/30 11:38:47;;;;;;;19.17;10.70;;;9.90;99.90;;;;;;5068428;28;20411;-86
2022/03/30 11:41:13;;;;;;;22.13;10.73;;;10.00;99.90;;;;;;5071218;28;20408;-85
2022/03/30 11:46:30;;;;;;;17.02;10.25;;;10.30;99.90;;;;;;5072010;28;20470;-86
2022/03/30 11:49:01;;;;;;;17.73;9.93;;;10.40;99.90;;;;;;5070593;28;20474;-86
2022/03/30 11:51:27;;;;;;;15.52;9.98;;;10.40;99.90;;;;;;5081410;28;20373;-88
2022/03/30 11:54:12;;;;;;;14.68;9.07;;;10.60;99.90;;;;;;5052531;28;20400;-85
2022/03/30 11:56:42;;;;;;;14.85;8.80;;;11.30;99.90;;;;;;5053956;28;20753;-86
2022/03/30 11:59:08;;;;;;;12.73;9.30;;;10.30;99.90;;;;;;5054187;28;20446;-86
2022/03/30 12:01:37;;;;;;;15.18;9.48;;;10.50;99.90;;;;;;5071919;28;20406;-86
2022/03/30 12:04:04;;;;;;;20.45;10.52;;;10.70;99.90;;;;;;5070680;28;20389;-85
2022/03/30 12:06:30;;;;;;;16.35;8.63;;;10.70;99.90;;;;;;5070194;28;20384;-85
2022/03/30 12:08:58;;;;;;;15.20;8.65;;;10.60;99.90;;;;;;5070713;28;20377;-86
2022/03/30 12:11:23;;;;;;;13.00;9.27;;;10.60;99.90;;;;;;5075032;28;20385;-85
2022/03/30 12:13:54;;;;;;;14.45;9.07;;;10.70;99.90;;;;;;5074387;28;20864;-86
2022/03/30 12:16:21;;;;;;;16.60;9.18;;;10.80;99.90;;;;;;5073755;28;20405;-86
2022/03/30 12:18:53;;;;;;;13.60;9.55;;;11.00;99.90;;;;;;5073484;28;20378;-86
2022/03/30 12:21:20;;;;;;;17.05;9.05;;;11.20;99.90;;;;;;5073271;28;20382;-85
2022/03/30 12:24:01;;;;;;;15.38;9.30;;;11.10;99.90;;;;;;5056795;28;20389;-85
2022/03/30 12:26:27;;;;;;;16.03;9.33;;;11.10;99.90;;;;;;5070716;28;20404;-85
2022/03/30 12:29:24;;;;;;;13.75;9.05;;;11.00;99.90;;;;;;5056595;28;20381;-86
2022/03/30 12:31:53;;;;;;;15.52;9.25;;;11.20;99.90;;;;;;5040041;28;20432;-86
2022/03/30 12:34:23;;;;;;;16.88;9.07;;;11.40;99.90;;;;;;5073564;28;20388;-86
2022/03/30 12:36:58;;;;;;;13.07;8.45;;;11.50;99.90;;;;;;5064647;28;20371;-85
2022/03/30 12:39:34;;;;;;;12.77;7.65;;;11.50;99.90;;;;;;5072125;28;20413;-86
2022/03/30 12:42:04;;;;;;;15.35;8.20;;;11.70;99.90;;;;;;5071436;28;20374;-86
2022/03/30 12:44:35;;;;;;;17.80;8.70;;;11.70;99.90;;;;;;5072697;28;20386;-87
2022/03/30 12:47:02;;;;;;;13.80;8.85;;;11.70;99.90;;;;;;5071571;28;20405;-87
2022/03/30 12:49:40;;;;;;;18.80;8.77;;;11.80;99.90;;;;;;5070820;28;20412;-86
2022/03/30 12:52:08;;;;;;;17.38;9.00;;;11.80;99.90;;;;;;5071885;28;20386;-86
2022/03/30 12:54:34;;;;;;;16.17;8.90;;;11.80;99.90;;;;;;5070121;28;20398;-86